createdAt,value
2022-10-19T01:06:15.564Z,15.49
2022-10-19T01:30:20.953Z,15.06
2022-10-19T02:04:49.661Z,15.15
2022-10-19T02:09:57.130Z,15.21
2022-10-19T02:15:12.673Z,15.29
2022-10-19T02:20:23.924Z,15.34
2022-10-19T02:25:31.492Z,15.39
2022-10-19T02:30:39.021Z,15.43
2022-10-19T02:35:49.414Z,15.50
2022-10-19T02:41:06.849Z,15.56
2022-10-19T02:46:18.592Z,15.63
2022-10-19T02:51:37.702Z,15.75
2022-10-19T02:56:45.221Z,15.76
2022-10-19T03:01:53.004Z,15.85
2022-10-19T03:07:03.682Z,15.92
2022-10-19T03:12:11.209Z,15.95
2022-10-19T03:17:18.749Z,15.98
2022-10-19T03:22:29.149Z,16.04
2022-10-19T03:27:36.960Z,16.04
2022-10-19T03:32:44.554Z,16.05
2022-10-19T03:37:54.679Z,16.09
2022-10-19T03:43:02.192Z,16.10
2022-10-19T03:48:09.761Z,16.15
2022-10-19T03:53:20.658Z,16.21
2022-10-19T03:58:28.131Z,16.23
2022-10-19T04:09:06.318Z,16.33
2022-10-19T04:14:22.820Z,16.34
2022-10-19T04:19:40.511Z,16.33
2022-10-19T04:24:51.403Z,16.31
2022-10-19T04:29:58.880Z,16.24
2022-10-19T04:35:07.247Z,16.20
2022-10-19T04:40:17.798Z,16.20
2022-10-19T04:45:25.290Z,16.18
2022-10-19T04:50:32.798Z,16.20
2022-10-19T04:55:45.981Z,16.23
2022-10-19T05:00:53.695Z,16.22
2022-10-19T05:06:02.078Z,16.22
2022-10-19T05:11:14.742Z,16.24
2022-10-19T05:16:24.029Z,16.19
2022-10-19T05:21:32.212Z,16.16
2022-10-19T05:26:42.656Z,16.16
2022-10-19T05:31:50.144Z,16.11
2022-10-19T05:36:58.098Z,16.10
2022-10-19T05:42:08.260Z,16.12
2022-10-19T05:47:15.820Z,16.11
2022-10-19T05:52:23.320Z,16.13
2022-10-19T05:57:35.092Z,16.16
2022-10-19T06:02:43.768Z,16.15
2022-10-19T06:07:51.249Z,16.17
2022-10-19T06:13:01.501Z,16.22
2022-10-19T06:18:09.382Z,16.29
2022-10-19T06:23:16.856Z,16.36
2022-10-19T06:28:27.058Z,16.44
2022-10-19T06:33:34.627Z,16.49
2022-10-19T06:38:42.300Z,16.54
2022-10-19T06:43:55.923Z,16.60
2022-10-19T06:49:04.749Z,16.60
2022-10-19T06:54:12.271Z,16.62
2022-10-19T06:59:22.421Z,16.65
2022-10-19T07:04:30.979Z,16.65
2022-10-19T07:09:38.483Z,16.62
2022-10-19T07:14:48.577Z,16.63
2022-10-19T07:19:56.135Z,16.61
2022-10-19T07:25:04.088Z,16.59
2022-10-19T07:30:15.064Z,16.60
2022-10-19T07:35:23.118Z,16.59
2022-10-19T07:40:30.599Z,16.58
2022-10-19T07:45:40.678Z,16.59
2022-10-19T07:50:50.626Z,16.61
2022-10-19T07:55:58.335Z,16.62
2022-10-19T08:01:10.956Z,16.64
2022-10-19T08:06:20.525Z,16.64
2022-10-19T08:11:30.655Z,16.67
2022-10-19T08:16:44.367Z,16.72
2022-10-19T08:21:52.882Z,16.69
2022-10-19T08:27:02.628Z,16.72
2022-10-19T08:32:12.713Z,16.75
2022-10-19T08:37:32.549Z,16.74
2022-10-19T08:42:55.387Z,16.79
2022-10-19T08:48:25.303Z,16.85
2022-10-19T08:53:43.391Z,16.90
2022-10-19T08:59:08.804Z,16.94
2022-10-19T09:04:25.150Z,16.96
2022-10-19T09:09:34.526Z,16.95
2022-10-19T09:14:54.660Z,16.98
2022-10-19T09:20:18.074Z,17.03
2022-10-19T09:25:29.228Z,17.00
2022-10-19T09:30:38.062Z,17.18
2022-10-19T09:35:49.974Z,17.05
2022-10-19T09:40:59.869Z,17.06
2022-10-19T09:46:19.840Z,17.06
2022-10-19T09:51:43.772Z,17.11
2022-10-19T09:56:57.762Z,17.09
2022-10-19T10:02:24.758Z,17.16
2022-10-19T10:07:39.098Z,17.13
2022-10-19T10:12:46.758Z,17.10
2022-10-19T10:17:55.760Z,17.13
2022-10-19T10:23:08.869Z,17.16
2022-10-19T10:28:22.736Z,17.15
2022-10-19T10:33:44.256Z,17.14
2022-10-19T10:38:59.069Z,17.17
2022-10-19T10:44:11.812Z,17.16
2022-10-19T10:49:24.847Z,17.15
2022-10-19T10:54:36.140Z,17.16
2022-10-19T10:59:50.067Z,17.15
2022-10-19T11:05:08.927Z,17.18
2022-10-19T11:10:27.176Z,17.24
2022-10-19T11:15:39.727Z,17.30
2022-10-19T11:20:56.096Z,17.36
2022-10-19T11:26:15.989Z,17.42
2022-10-19T11:31:31.172Z,17.42
2022-10-19T11:36:48.987Z,17.49
2022-10-19T11:42:08.454Z,17.55
2022-10-19T11:47:30.021Z,17.60
2022-10-19T11:52:40.945Z,17.83
2022-10-19T11:57:58.429Z,17.79
2022-10-19T12:03:51.203Z,17.93
2022-10-19T12:09:06.173Z,18.12
2022-10-19T12:14:20.982Z,18.03
2022-10-19T12:19:32.557Z,18.09
2022-10-19T12:24:40.065Z,18.14
2022-10-19T12:29:52.763Z,18.27
2022-10-19T12:35:08.293Z,18.32
2022-10-19T12:40:25.524Z,18.39
2022-10-19T12:45:39.244Z,18.44
2022-10-19T12:51:12.119Z,18.54
2022-10-19T12:56:24.342Z,18.53
2022-10-19T13:01:46.472Z,18.62
2022-10-19T13:07:02.457Z,18.60
2022-10-19T13:12:44.130Z,18.71
2022-10-19T13:17:55.551Z,18.71
2022-10-19T13:23:32.960Z,18.80
2022-10-19T13:28:41.693Z,18.78
2022-10-19T13:33:56.433Z,18.83
2022-10-19T13:39:08.633Z,18.83
2022-10-19T13:44:39.521Z,18.87
2022-10-19T13:50:13.151Z,18.91
2022-10-19T13:56:02.931Z,18.93
2022-10-19T14:01:25.745Z,18.90
2022-10-19T14:06:39.582Z,18.89
2022-10-19T14:11:50.024Z,18.90
2022-10-19T14:17:02.964Z,18.91
2022-10-19T14:22:26.306Z,18.95
2022-10-19T14:27:34.619Z,18.90
2022-10-19T14:32:42.568Z,18.90
2022-10-19T14:37:53.182Z,18.92
2022-10-19T14:43:01.788Z,18.91
2022-10-19T14:48:19.715Z,18.88
2022-10-19T14:53:37.331Z,18.90
2022-10-19T14:58:50.777Z,18.84
2022-10-19T15:03:59.821Z,18.80
2022-10-19T15:09:19.574Z,18.81
2022-10-19T15:14:40.974Z,18.77
2022-10-19T15:19:48.719Z,18.75
2022-10-19T15:25:04.938Z,18.74
2022-10-19T15:30:28.646Z,18.70
2022-10-19T15:35:38.561Z,18.62
2022-10-19T15:40:49.735Z,18.59
2022-10-19T15:46:02.572Z,18.73
2022-10-19T15:51:38.485Z,18.60
2022-10-19T15:56:53.025Z,18.52
2022-10-19T16:02:00.607Z,18.47
2022-10-19T16:07:08.684Z,18.45
2022-10-19T16:12:19.047Z,18.44
2022-10-19T16:17:27.087Z,18.43
2022-10-19T16:22:34.625Z,18.39
2022-10-19T16:27:44.903Z,18.37
2022-10-19T16:32:52.449Z,18.35
2022-10-19T16:38:00.080Z,18.31
2022-10-19T16:43:10.242Z,18.31
2022-10-19T16:48:21.855Z,18.28
2022-10-19T16:53:31.308Z,18.24
2022-10-19T16:58:42.970Z,18.25
2022-10-19T17:03:51.427Z,18.20
2022-10-19T17:14:30.399Z,18.18
2022-10-19T17:19:43.552Z,18.13
2022-10-19T17:24:51.071Z,18.12
2022-10-19T17:30:01.186Z,18.11
2022-10-19T17:35:10.228Z,18.08
2022-10-19T17:40:18.434Z,18.06
2022-10-19T17:45:28.701Z,18.06
2022-10-19T17:50:36.489Z,18.03
2022-10-19T17:55:44.042Z,18.01
2022-10-19T18:00:59.176Z,18.02
2022-10-19T18:06:10.797Z,17.98
2022-10-19T18:11:31.451Z,17.98
2022-10-19T18:16:44.776Z,17.97
2022-10-19T18:21:53.228Z,17.92
2022-10-19T18:27:00.857Z,17.92
2022-10-19T18:32:10.979Z,17.94
2022-10-19T18:37:18.487Z,17.90
2022-10-19T18:42:25.991Z,17.87
2022-10-19T18:47:36.091Z,17.87
2022-10-19T18:52:43.576Z,17.86
2022-10-19T18:57:51.219Z,17.86
2022-10-19T19:03:01.345Z,17.89
2022-10-19T19:13:22.128Z,17.84
2022-10-19T19:18:33.769Z,17.80
2022-10-19T19:23:41.401Z,17.73
2022-10-19T19:28:49.194Z,17.69
2022-10-19T19:34:02.381Z,17.66
2022-10-19T19:39:09.861Z,17.63
2022-10-19T19:44:17.542Z,17.56
2022-10-19T19:49:27.750Z,17.51
2022-10-19T19:54:35.228Z,17.42
2022-10-19T19:59:42.742Z,17.34
2022-10-19T20:04:52.874Z,17.30
2022-10-19T20:10:00.375Z,17.28
2022-10-19T20:15:09.275Z,17.24
2022-10-19T20:20:19.866Z,17.23
2022-10-19T20:25:27.510Z,17.17
2022-10-19T20:30:35.103Z,17.08
2022-10-19T20:35:45.256Z,16.98
2022-10-19T20:40:54.644Z,16.81
2022-10-19T20:46:06.455Z,16.69
2022-10-19T20:51:19.139Z,16.56
2022-10-19T20:56:29.256Z,16.42
2022-10-19T21:01:39.413Z,16.32
2022-10-19T21:06:51.448Z,16.15
2022-10-19T21:11:59.235Z,15.89
2022-10-19T21:17:06.730Z,15.69
2022-10-19T21:22:16.916Z,15.54
2022-10-19T21:27:24.395Z,15.37
2022-10-19T21:32:31.901Z,15.18
2022-10-19T21:37:42.246Z,15.05
2022-10-19T21:42:50.373Z,14.88
2022-10-19T21:47:57.869Z,14.78
2022-10-19T21:53:07.938Z,14.76
2022-10-19T21:58:15.793Z,14.72
2022-10-19T22:03:23.277Z,14.66
2022-10-19T22:08:33.452Z,14.59
2022-10-19T22:13:41.074Z,14.48
2022-10-19T22:18:49.424Z,14.38
2022-10-19T22:24:01.665Z,14.36
2022-10-19T22:29:10.285Z,14.26
2022-10-19T22:34:19.736Z,14.22
2022-10-19T22:39:30.113Z,14.23
2022-10-19T22:44:37.706Z,14.28
2022-10-19T22:49:45.194Z,14.27
2022-10-19T22:54:55.360Z,14.14
2022-10-19T23:00:02.878Z,13.94
2022-10-19T23:05:11.300Z,13.85
2022-10-19T23:10:21.464Z,13.94
2022-10-19T23:15:29.008Z,14.03
2022-10-19T23:20:36.685Z,14.11
2022-10-19T23:25:46.772Z,14.21
2022-10-19T23:30:56.146Z,14.16
2022-10-19T23:36:08.416Z,14.16
2022-10-19T23:41:19.136Z,14.02
2022-10-19T23:46:26.662Z,13.84
2022-10-19T23:51:34.478Z,13.76
2022-10-19T23:56:44.589Z,13.80
